Airport Information

KBFI - Boeing Fld King Co Intl Airport

KBFI 241253Z 28003KT 10SM CLR 16/12 A3014 RMK AO2 SLP207 T01610122


  • General Information

  • Coordinates: N 47°31'48"/ W 122°18'7"
  • Location: N/A
  • Surveyed Elevation: 21 MSL

Operations

Flow Name Active Runways Conditions
South Flow Landing: 13R/13L
Departing: 13R/13L
Wind Direction: 040-220°
Wind Speed: <5 or CALM
North Flow Landing: 31L/31R
Departing: 31L/31R
Wind Direction: 221-039°
Wind Speed: ≥6

Green background denotes normal operations.


Common Frequencies

Callsign Frequency Position Name
BFI_DEL 132.400 Boeing Delivery
BFI_GND 121.900 Boeing Ground
BFR_TWR 118.300 Boeing Tower

More at the Document Center


Charts

Name Description Cycle
KENT SEVEN Page 1 | Page 2 1608
NEEDLE NINE Page 1 | Page 2 1608
Name Description Cycle
CHINS TWO Page 1 | Page 2 1610
EPHRATA EIGHT Page 1 1613
GLASR ONE Page 1 | Page 2 1610
JAWBN FIVE Page 1 1613
OLYMPIA TWO Page 1 | Page 2 1613